sensor_id;sensor_type;location;lat;lon;timestamp;P1;durP1;ratioP1;P2;durP2;ratioP2
28427;SDS011;15662;49.128;8.520;2023-04-06T00:00:27;7.65;;;5.47;;
28427;SDS011;15662;49.128;8.520;2023-04-06T00:02:55;6.60;;;5.65;;
28427;SDS011;15662;49.128;8.520;2023-04-06T00:05:23;8.80;;;6.07;;
28427;SDS011;15662;49.128;8.520;2023-04-06T00:07:51;13.50;;;6.93;;
28427;SDS011;15662;49.128;8.520;2023-04-06T00:10:21;7.95;;;6.07;;
28427;SDS011;15662;49.128;8.520;2023-04-06T00:12:48;8.05;;;5.93;;
28427;SDS011;15662;49.128;8.520;2023-04-06T00:15:16;8.27;;;5.88;;
28427;SDS011;15662;49.128;8.520;2023-04-06T00:17:44;6.75;;;5.20;;
28427;SDS011;15662;49.128;8.520;2023-04-06T00:20:12;7.30;;;5.57;;
28427;SDS011;15662;49.128;8.520;2023-04-06T00:22:40;7.47;;;5.50;;
28427;SDS011;15662;49.128;8.520;2023-04-06T00:25:08;7.32;;;5.68;;
28427;SDS011;15662;49.128;8.520;2023-04-06T00:27:37;6.28;;;5.43;;
28427;SDS011;15662;49.128;8.520;2023-04-06T00:30:06;8.45;;;5.97;;
28427;SDS011;15662;49.128;8.520;2023-04-06T00:32:35;7.28;;;5.13;;
28427;SDS011;15662;49.128;8.520;2023-04-06T00:35:03;9.48;;;6.18;;
28427;SDS011;15662;49.128;8.520;2023-04-06T00:37:32;9.20;;;5.88;;
28427;SDS011;15662;49.128;8.520;2023-04-06T00:40:00;8.43;;;6.00;;
28427;SDS011;15662;49.128;8.520;2023-04-06T00:42:28;9.10;;;5.82;;
28427;SDS011;15662;49.128;8.520;2023-04-06T00:44:58;6.95;;;5.53;;
28427;SDS011;15662;49.128;8.520;2023-04-06T00:47:27;4.57;;;3.93;;
28427;SDS011;15662;49.128;8.520;2023-04-06T00:49:56;7.18;;;5.70;;
28427;SDS011;15662;49.128;8.520;2023-04-06T00:52:24;7.68;;;5.95;;
28427;SDS011;15662;49.128;8.520;2023-04-06T00:54:53;9.65;;;5.82;;
28427;SDS011;15662;49.128;8.520;2023-04-06T00:57:22;7.32;;;5.95;;
28427;SDS011;15662;49.128;8.520;2023-04-06T00:59:54;9.30;;;5.78;;
28427;SDS011;15662;49.128;8.520;2023-04-06T01:02:23;7.85;;;5.65;;
28427;SDS011;15662;49.128;8.520;2023-04-06T01:04:53;7.70;;;6.05;;
28427;SDS011;15662;49.128;8.520;2023-04-06T01:07:30;9.27;;;6.50;;
28427;SDS011;15662;49.128;8.520;2023-04-06T01:10:06;9.60;;;6.63;;
28427;SDS011;15662;49.128;8.520;2023-04-06T01:12:36;9.35;;;6.20;;
28427;SDS011;15662;49.128;8.520;2023-04-06T01:15:11;8.43;;;6.60;;
28427;SDS011;15662;49.128;8.520;2023-04-06T01:17:43;7.88;;;6.40;;
28427;SDS011;15662;49.128;8.520;2023-04-06T01:20:14;10.10;;;6.07;;
28427;SDS011;15662;49.128;8.520;2023-04-06T01:22:42;12.82;;;6.10;;
28427;SDS011;15662;49.128;8.520;2023-04-06T01:25:12;8.73;;;6.50;;
28427;SDS011;15662;49.128;8.520;2023-04-06T01:27:47;8.10;;;6.63;;
28427;SDS011;15662;49.128;8.520;2023-04-06T01:30:21;8.07;;;6.35;;
28427;SDS011;15662;49.128;8.520;2023-04-06T01:32:53;8.57;;;6.20;;
28427;SDS011;15662;49.128;8.520;2023-04-06T01:35:36;8.45;;;6.32;;
28427;SDS011;15662;49.128;8.520;2023-04-06T01:38:16;6.90;;;5.35;;
28427;SDS011;15662;49.128;8.520;2023-04-06T01:40:46;8.73;;;6.18;;
28427;SDS011;15662;49.128;8.520;2023-04-06T01:43:17;7.35;;;5.85;;
28427;SDS011;15662;49.128;8.520;2023-04-06T01:45:58;11.70;;;6.00;;
28427;SDS011;15662;49.128;8.520;2023-04-06T01:48:32;8.57;;;6.13;;
28427;SDS011;15662;49.128;8.520;2023-04-06T01:51:05;7.82;;;5.47;;
28427;SDS011;15662;49.128;8.520;2023-04-06T01:53:40;7.65;;;5.97;;
28427;SDS011;15662;49.128;8.520;2023-04-06T01:56:08;8.40;;;5.80;;
28427;SDS011;15662;49.128;8.520;2023-04-06T01:58:42;10.82;;;6.35;;
28427;SDS011;15662;49.128;8.520;2023-04-06T02:01:13;8.27;;;6.30;;
28427;SDS011;15662;49.128;8.520;2023-04-06T02:03:51;9.13;;;6.07;;
28427;SDS011;15662;49.128;8.520;2023-04-06T02:06:19;8.15;;;5.88;;
28427;SDS011;15662;49.128;8.520;2023-04-06T02:08:48;10.40;;;6.07;;
28427;SDS011;15662;49.128;8.520;2023-04-06T02:11:16;7.53;;;5.50;;
28427;SDS011;15662;49.128;8.520;2023-04-06T02:13:48;8.95;;;6.07;;
28427;SDS011;15662;49.128;8.520;2023-04-06T02:16:16;7.25;;;5.65;;
28427;SDS011;15662;49.128;8.520;2023-04-06T02:18:45;7.43;;;5.60;;
28427;SDS011;15662;49.128;8.520;2023-04-06T02:21:13;6.45;;;5.45;;
28427;SDS011;15662;49.128;8.520;2023-04-06T02:26:14;9.10;;;5.57;;
28427;SDS011;15662;49.128;8.520;2023-04-06T02:28:42;9.40;;;5.65;;
28427;SDS011;15662;49.128;8.520;2023-04-06T02:31:10;10.52;;;5.80;;
28427;SDS011;15662;49.128;8.520;2023-04-06T02:33:38;7.13;;;5.63;;
28427;SDS011;15662;49.128;8.520;2023-04-06T02:36:07;9.80;;;6.40;;
28427;SDS011;15662;49.128;8.520;2023-04-06T02:38:35;8.32;;;5.93;;
28427;SDS011;15662;49.128;8.520;2023-04-06T02:41:03;6.97;;;5.40;;
28427;SDS011;15662;49.128;8.520;2023-04-06T02:43:32;7.45;;;5.70;;
28427;SDS011;15662;49.128;8.520;2023-04-06T02:46:05;8.77;;;6.22;;
28427;SDS011;15662;49.128;8.520;2023-04-06T02:48:37;8.35;;;5.95;;
28427;SDS011;15662;49.128;8.520;2023-04-06T02:51:05;6.90;;;5.95;;
28427;SDS011;15662;49.128;8.520;2023-04-06T02:53:34;7.50;;;5.75;;
28427;SDS011;15662;49.128;8.520;2023-04-06T02:56:02;10.10;;;6.53;;
28427;SDS011;15662;49.128;8.520;2023-04-06T02:58:42;7.85;;;5.53;;
28427;SDS011;15662;49.128;8.520;2023-04-06T03:01:10;6.82;;;5.47;;
28427;SDS011;15662;49.128;8.520;2023-04-06T03:03:40;9.43;;;5.55;;
28427;SDS011;15662;49.128;8.520;2023-04-06T03:06:14;8.00;;;6.22;;
28427;SDS011;15662;49.128;8.520;2023-04-06T03:08:43;9.35;;;5.93;;
28427;SDS011;15662;49.128;8.520;2023-04-06T03:11:11;8.05;;;6.03;;
28427;SDS011;15662;49.128;8.520;2023-04-06T03:13:41;6.17;;;4.77;;
28427;SDS011;15662;49.128;8.520;2023-04-06T03:16:10;7.68;;;6.05;;
28427;SDS011;15662;49.128;8.520;2023-04-06T03:18:38;8.02;;;5.90;;
28427;SDS011;15662;49.128;8.520;2023-04-06T03:21:06;9.43;;;5.80;;
28427;SDS011;15662;49.128;8.520;2023-04-06T03:23:43;8.05;;;5.80;;
28427;SDS011;15662;49.128;8.520;2023-04-06T03:26:12;7.50;;;5.88;;
28427;SDS011;15662;49.128;8.520;2023-04-06T03:28:39;8.13;;;6.07;;
28427;SDS011;15662;49.128;8.520;2023-04-06T03:31:07;8.20;;;6.05;;
28427;SDS011;15662;49.128;8.520;2023-04-06T03:33:51;10.73;;;5.63;;
28427;SDS011;15662;49.128;8.520;2023-04-06T03:36:25;9.38;;;5.80;;
28427;SDS011;15662;49.128;8.520;2023-04-06T03:38:56;7.67;;;6.37;;
28427;SDS011;15662;49.128;8.520;2023-04-06T03:41:24;9.85;;;6.25;;
28427;SDS011;15662;49.128;8.520;2023-04-06T03:44:07;8.40;;;6.05;;
28427;SDS011;15662;49.128;8.520;2023-04-06T03:46:36;9.05;;;6.50;;
28427;SDS011;15662;49.128;8.520;2023-04-06T03:49:05;7.15;;;6.10;;
28427;SDS011;15662;49.128;8.520;2023-04-06T03:51:34;7.43;;;6.22;;
28427;SDS011;15662;49.128;8.520;2023-04-06T03:54:03;10.68;;;7.18;;
28427;SDS011;15662;49.128;8.520;2023-04-06T03:56:32;12.48;;;7.35;;
28427;SDS011;15662;49.128;8.520;2023-04-06T03:58:59;10.45;;;7.18;;
28427;SDS011;15662;49.128;8.520;2023-04-06T04:01:29;8.60;;;6.72;;
28427;SDS011;15662;49.128;8.520;2023-04-06T04:03:57;9.10;;;6.60;;
28427;SDS011;15662;49.128;8.520;2023-04-06T04:06:25;7.40;;;6.20;;
28427;SDS011;15662;49.128;8.520;2023-04-06T04:08:52;8.35;;;6.38;;
28427;SDS011;15662;49.128;8.520;2023-04-06T04:11:21;9.68;;;6.50;;
28427;SDS011;15662;49.128;8.520;2023-04-06T04:13:55;9.77;;;6.15;;
28427;SDS011;15662;49.128;8.520;2023-04-06T04:16:23;7.60;;;5.75;;
28427;SDS011;15662;49.128;8.520;2023-04-06T04:18:51;7.43;;;5.85;;
28427;SDS011;15662;49.128;8.520;2023-04-06T04:21:19;7.82;;;5.97;;
28427;SDS011;15662;49.128;8.520;2023-04-06T04:23:47;8.82;;;6.20;;
28427;SDS011;15662;49.128;8.520;2023-04-06T04:26:15;7.07;;;6.05;;
28427;SDS011;15662;49.128;8.520;2023-04-06T04:28:45;7.38;;;5.88;;
28427;SDS011;15662;49.128;8.520;2023-04-06T04:31:14;6.32;;;5.70;;
28427;SDS011;15662;49.128;8.520;2023-04-06T04:34:08;8.80;;;5.75;;
28427;SDS011;15662;49.128;8.520;2023-04-06T04:36:57;7.03;;;5.90;;
28427;SDS011;15662;49.128;8.520;2023-04-06T04:39:57;7.25;;;5.88;;
28427;SDS011;15662;49.128;8.520;2023-04-06T04:42:27;9.45;;;5.78;;
28427;SDS011;15662;49.128;8.520;2023-04-06T04:44:58;10.25;;;6.35;;
28427;SDS011;15662;49.128;8.520;2023-04-06T04:47:35;7.85;;;5.97;;
28427;SDS011;15662;49.128;8.520;2023-04-06T04:50:05;7.70;;;6.07;;
28427;SDS011;15662;49.128;8.520;2023-04-06T04:52:37;6.90;;;5.68;;
28427;SDS011;15662;49.128;8.520;2023-04-06T04:55:14;9.00;;;5.60;;
28427;SDS011;15662;49.128;8.520;2023-04-06T04:57:45;7.20;;;5.82;;
28427;SDS011;15662;49.128;8.520;2023-04-06T05:00:14;7.00;;;6.03;;
28427;SDS011;15662;49.128;8.520;2023-04-06T05:02:45;8.23;;;5.97;;
28427;SDS011;15662;49.128;8.520;2023-04-06T05:05:18;7.53;;;5.90;;
28427;SDS011;15662;49.128;8.520;2023-04-06T05:07:46;8.00;;;5.90;;
28427;SDS011;15662;49.128;8.520;2023-04-06T05:10:25;7.45;;;6.40;;
28427;SDS011;15662;49.128;8.520;2023-04-06T05:12:58;9.73;;;5.93;;
28427;SDS011;15662;49.128;8.520;2023-04-06T05:15:27;10.93;;;5.75;;
28427;SDS011;15662;49.128;8.520;2023-04-06T05:18:02;9.02;;;6.13;;
28427;SDS011;15662;49.128;8.520;2023-04-06T05:20:35;7.43;;;5.70;;
28427;SDS011;15662;49.128;8.520;2023-04-06T05:23:03;7.03;;;5.93;;
28427;SDS011;15662;49.128;8.520;2023-04-06T05:25:31;7.55;;;5.70;;
28427;SDS011;15662;49.128;8.520;2023-04-06T05:28:10;9.15;;;6.20;;
28427;SDS011;15662;49.128;8.520;2023-04-06T05:30:41;8.55;;;6.03;;
28427;SDS011;15662;49.128;8.520;2023-04-06T05:33:11;10.65;;;6.72;;
28427;SDS011;15662;49.128;8.520;2023-04-06T05:35:59;10.73;;;7.30;;
28427;SDS011;15662;49.128;8.520;2023-04-06T05:38:28;11.00;;;7.20;;
28427;SDS011;15662;49.128;8.520;2023-04-06T05:41:01;9.35;;;7.05;;
28427;SDS011;15662;49.128;8.520;2023-04-06T05:43:31;9.85;;;5.20;;
28427;SDS011;15662;49.128;8.520;2023-04-06T05:46:00;8.18;;;6.53;;
28427;SDS011;15662;49.128;8.520;2023-04-06T05:48:30;8.05;;;5.90;;
28427;SDS011;15662;49.128;8.520;2023-04-06T05:51:01;8.50;;;5.95;;
28427;SDS011;15662;49.128;8.520;2023-04-06T05:53:43;9.05;;;6.07;;
28427;SDS011;15662;49.128;8.520;2023-04-06T05:56:13;7.55;;;6.10;;
28427;SDS011;15662;49.128;8.520;2023-04-06T05:58:42;10.27;;;6.10;;
28427;SDS011;15662;49.128;8.520;2023-04-06T06:01:12;7.73;;;6.70;;
28427;SDS011;15662;49.128;8.520;2023-04-06T06:03:45;10.55;;;7.07;;
28427;SDS011;15662;49.128;8.520;2023-04-06T06:06:14;10.05;;;6.25;;
28427;SDS011;15662;49.128;8.520;2023-04-06T06:09:01;9.63;;;6.43;;
28427;SDS011;15662;49.128;8.520;2023-04-06T06:11:33;8.35;;;6.13;;
28427;SDS011;15662;49.128;8.520;2023-04-06T06:14:06;8.25;;;6.10;;
28427;SDS011;15662;49.128;8.520;2023-04-06T06:19:07;8.05;;;5.88;;
28427;SDS011;15662;49.128;8.520;2023-04-06T06:21:36;7.75;;;5.82;;
28427;SDS011;15662;49.128;8.520;2023-04-06T06:24:06;8.18;;;5.90;;
28427;SDS011;15662;49.128;8.520;2023-04-06T06:26:36;14.83;;;6.90;;
28427;SDS011;15662;49.128;8.520;2023-04-06T06:29:07;7.68;;;6.45;;
28427;SDS011;15662;49.128;8.520;2023-04-06T06:31:38;10.25;;;6.63;;
28427;SDS011;15662;49.128;8.520;2023-04-06T06:34:06;8.25;;;6.60;;
28427;SDS011;15662;49.128;8.520;2023-04-06T06:36:36;8.98;;;5.80;;
28427;SDS011;15662;49.128;8.520;2023-04-06T06:39:07;11.07;;;6.82;;
28427;SDS011;15662;49.128;8.520;2023-04-06T06:41:38;8.00;;;6.25;;
28427;SDS011;15662;49.128;8.520;2023-04-06T06:44:09;7.97;;;6.18;;
28427;SDS011;15662;49.128;8.520;2023-04-06T06:46:38;11.57;;;6.40;;
28427;SDS011;15662;49.128;8.520;2023-04-06T06:49:06;8.75;;;6.57;;
28427;SDS011;15662;49.128;8.520;2023-04-06T06:51:34;7.97;;;6.50;;
28427;SDS011;15662;49.128;8.520;2023-04-06T06:54:05;8.63;;;5.65;;
28427;SDS011;15662;49.128;8.520;2023-04-06T06:56:35;8.55;;;6.05;;
28427;SDS011;15662;49.128;8.520;2023-04-06T06:59:06;6.55;;;5.50;;
28427;SDS011;15662;49.128;8.520;2023-04-06T07:01:35;6.35;;;5.35;;
28427;SDS011;15662;49.128;8.520;2023-04-06T07:04:04;6.00;;;5.40;;
28427;SDS011;15662;49.128;8.520;2023-04-06T07:06:32;8.13;;;5.57;;
28427;SDS011;15662;49.128;8.520;2023-04-06T07:09:04;8.70;;;5.80;;
28427;SDS011;15662;49.128;8.520;2023-04-06T07:11:34;6.55;;;5.55;;
28427;SDS011;15662;49.128;8.520;2023-04-06T07:14:02;6.47;;;5.50;;
28427;SDS011;15662;49.128;8.520;2023-04-06T07:16:30;8.73;;;5.55;;
28427;SDS011;15662;49.128;8.520;2023-04-06T07:18:58;5.93;;;5.30;;
28427;SDS011;15662;49.128;8.520;2023-04-06T07:21:30;5.60;;;5.00;;
28427;SDS011;15662;49.128;8.520;2023-04-06T07:23:59;5.85;;;4.68;;
28427;SDS011;15662;49.128;8.520;2023-04-06T07:26:29;8.60;;;4.70;;
28427;SDS011;15662;49.128;8.520;2023-04-06T07:28:57;7.78;;;5.18;;
28427;SDS011;15662;49.128;8.520;2023-04-06T07:31:25;6.30;;;4.72;;
28427;SDS011;15662;49.128;8.520;2023-04-06T07:33:54;5.03;;;4.32;;
28427;SDS011;15662;49.128;8.520;2023-04-06T07:36:24;5.18;;;4.22;;
28427;SDS011;15662;49.128;8.520;2023-04-06T07:38:52;7.97;;;4.65;;
28427;SDS011;15662;49.128;8.520;2023-04-06T07:41:22;7.20;;;5.10;;
28427;SDS011;15662;49.128;8.520;2023-04-06T07:43:51;4.38;;;3.95;;
28427;SDS011;15662;49.128;8.520;2023-04-06T07:46:19;8.02;;;4.50;;
28427;SDS011;15662;49.128;8.520;2023-04-06T07:48:47;7.22;;;4.95;;
28427;SDS011;15662;49.128;8.520;2023-04-06T07:51:17;7.85;;;5.07;;
28427;SDS011;15662;49.128;8.520;2023-04-06T07:53:46;5.88;;;4.60;;
28427;SDS011;15662;49.128;8.520;2023-04-06T07:56:14;6.35;;;5.13;;
28427;SDS011;15662;49.128;8.520;2023-04-06T07:58:46;4.93;;;4.43;;
28427;SDS011;15662;49.128;8.520;2023-04-06T08:01:14;6.25;;;4.65;;
28427;SDS011;15662;49.128;8.520;2023-04-06T08:03:42;4.90;;;4.40;;
28427;SDS011;15662;49.128;8.520;2023-04-06T08:06:11;4.60;;;4.15;;
28427;SDS011;15662;49.128;8.520;2023-04-06T08:08:39;5.07;;;4.35;;
28427;SDS011;15662;49.128;8.520;2023-04-06T08:11:07;5.78;;;4.75;;
28427;SDS011;15662;49.128;8.520;2023-04-06T08:13:35;6.00;;;4.78;;
28427;SDS011;15662;49.128;8.520;2023-04-06T08:16:04;5.47;;;4.80;;
28427;SDS011;15662;49.128;8.520;2023-04-06T08:18:33;9.55;;;6.65;;
28427;SDS011;15662;49.128;8.520;2023-04-06T08:21:01;6.97;;;5.00;;
28427;SDS011;15662;49.128;8.520;2023-04-06T08:23:29;4.95;;;4.45;;
28427;SDS011;15662;49.128;8.520;2023-04-06T08:25:58;5.00;;;4.32;;
28427;SDS011;15662;49.128;8.520;2023-04-06T08:28:28;6.63;;;4.65;;
28427;SDS011;15662;49.128;8.520;2023-04-06T08:30:56;5.38;;;4.20;;
28427;SDS011;15662;49.128;8.520;2023-04-06T08:33:24;4.57;;;4.07;;
28427;SDS011;15662;49.128;8.520;2023-04-06T08:35:52;5.18;;;4.32;;
28427;SDS011;15662;49.128;8.520;2023-04-06T08:38:20;8.48;;;5.63;;
28427;SDS011;15662;49.128;8.520;2023-04-06T08:40:48;6.45;;;4.75;;
28427;SDS011;15662;49.128;8.520;2023-04-06T08:43:18;5.90;;;4.43;;
28427;SDS011;15662;49.128;8.520;2023-04-06T08:45:50;7.22;;;4.60;;
28427;SDS011;15662;49.128;8.520;2023-04-06T08:48:18;7.78;;;4.90;;
28427;SDS011;15662;49.128;8.520;2023-04-06T08:50:48;7.13;;;5.03;;
28427;SDS011;15662;49.128;8.520;2023-04-06T08:53:16;6.15;;;4.75;;
28427;SDS011;15662;49.128;8.520;2023-04-06T08:55:46;4.93;;;4.32;;
28427;SDS011;15662;49.128;8.520;2023-04-06T08:58:15;7.80;;;4.53;;
28427;SDS011;15662;49.128;8.520;2023-04-06T09:01:02;5.75;;;4.95;;
28427;SDS011;15662;49.128;8.520;2023-04-06T09:03:36;5.68;;;4.25;;
28427;SDS011;15662;49.128;8.520;2023-04-06T09:06:08;6.28;;;4.75;;
28427;SDS011;15662;49.128;8.520;2023-04-06T09:08:38;5.63;;;4.00;;
28427;SDS011;15662;49.128;8.520;2023-04-06T09:11:08;4.72;;;4.32;;
28427;SDS011;15662;49.128;8.520;2023-04-06T09:13:46;4.85;;;4.35;;
28427;SDS011;15662;49.128;8.520;2023-04-06T09:16:17;6.95;;;4.63;;
28427;SDS011;15662;49.128;8.520;2023-04-06T09:18:46;11.88;;;5.20;;
28427;SDS011;15662;49.128;8.520;2023-04-06T09:21:18;7.10;;;4.68;;
28427;SDS011;15662;49.128;8.520;2023-04-06T09:24:00;5.65;;;4.47;;
28427;SDS011;15662;49.128;8.520;2023-04-06T09:26:31;6.05;;;4.80;;
28427;SDS011;15662;49.128;8.520;2023-04-06T09:29:00;5.63;;;4.60;;
28427;SDS011;15662;49.128;8.520;2023-04-06T09:31:30;5.45;;;4.43;;
28427;SDS011;15662;49.128;8.520;2023-04-06T09:34:03;5.68;;;4.80;;
28427;SDS011;15662;49.128;8.520;2023-04-06T09:36:32;5.40;;;4.47;;
28427;SDS011;15662;49.128;8.520;2023-04-06T09:39:05;6.00;;;4.53;;
28427;SDS011;15662;49.128;8.520;2023-04-06T09:41:35;7.75;;;5.70;;
28427;SDS011;15662;49.128;8.520;2023-04-06T09:44:04;5.97;;;4.25;;
28427;SDS011;15662;49.128;8.520;2023-04-06T09:46:39;5.22;;;4.53;;
28427;SDS011;15662;49.128;8.520;2023-04-06T09:49:30;4.70;;;4.30;;
28427;SDS011;15662;49.128;8.520;2023-04-06T09:52:02;5.75;;;4.40;;
28427;SDS011;15662;49.128;8.520;2023-04-06T09:54:31;5.95;;;5.07;;
28427;SDS011;15662;49.128;8.520;2023-04-06T09:57:02;7.47;;;4.88;;
28427;SDS011;15662;49.128;8.520;2023-04-06T10:05:42;5.88;;;4.93;;
28427;SDS011;15662;49.128;8.520;2023-04-06T10:08:28;5.20;;;4.70;;
28427;SDS011;15662;49.128;8.520;2023-04-06T10:10:59;5.47;;;4.80;;
28427;SDS011;15662;49.128;8.520;2023-04-06T10:13:28;5.93;;;4.45;;
28427;SDS011;15662;49.128;8.520;2023-04-06T10:15:57;6.05;;;4.88;;
28427;SDS011;15662;49.128;8.520;2023-04-06T10:18:29;5.50;;;4.68;;
28427;SDS011;15662;49.128;8.520;2023-04-06T10:21:00;5.15;;;4.40;;
28427;SDS011;15662;49.128;8.520;2023-04-06T10:23:56;7.15;;;4.50;;
28427;SDS011;15662;49.128;8.520;2023-04-06T10:26:28;4.72;;;4.20;;
28427;SDS011;15662;49.128;8.520;2023-04-06T10:29:01;5.75;;;4.82;;
28427;SDS011;15662;49.128;8.520;2023-04-06T10:31:32;5.22;;;4.50;;
28427;SDS011;15662;49.128;8.520;2023-04-06T10:34:07;9.85;;;4.72;;
28427;SDS011;15662;49.128;8.520;2023-04-06T10:36:36;7.93;;;4.65;;
28427;SDS011;15662;49.128;8.520;2023-04-06T10:39:05;6.50;;;4.85;;
28427;SDS011;15662;49.128;8.520;2023-04-06T10:44:22;4.97;;;4.45;;
28427;SDS011;15662;49.128;8.520;2023-04-06T10:46:57;5.40;;;4.07;;
28427;SDS011;15662;49.128;8.520;2023-04-06T10:49:30;5.18;;;4.63;;
28427;SDS011;15662;49.128;8.520;2023-04-06T10:51:58;5.20;;;4.70;;
28427;SDS011;15662;49.128;8.520;2023-04-06T10:54:26;6.43;;;4.60;;
28427;SDS011;15662;49.128;8.520;2023-04-06T10:56:57;4.95;;;3.22;;
28427;SDS011;15662;49.128;8.520;2023-04-06T10:59:25;5.80;;;4.80;;
28427;SDS011;15662;49.128;8.520;2023-04-06T11:01:59;5.45;;;4.50;;
28427;SDS011;15662;49.128;8.520;2023-04-06T11:04:26;9.25;;;4.72;;
28427;SDS011;15662;49.128;8.520;2023-04-06T11:06:54;5.70;;;5.20;;
28427;SDS011;15662;49.128;8.520;2023-04-06T11:09:27;7.47;;;4.63;;
28427;SDS011;15662;49.128;8.520;2023-04-06T11:11:58;7.90;;;5.30;;
28427;SDS011;15662;49.128;8.520;2023-04-06T11:14:28;5.07;;;4.57;;
28427;SDS011;15662;49.128;8.520;2023-04-06T11:16:55;5.57;;;5.07;;
28427;SDS011;15662;49.128;8.520;2023-04-06T11:19:24;7.55;;;5.50;;
28427;SDS011;15662;49.128;8.520;2023-04-06T11:21:52;6.53;;;4.70;;
28427;SDS011;15662;49.128;8.520;2023-04-06T11:24:21;4.78;;;4.30;;
28427;SDS011;15662;49.128;8.520;2023-04-06T11:26:53;5.18;;;4.53;;
28427;SDS011;15662;49.128;8.520;2023-04-06T11:29:28;8.77;;;4.63;;
28427;SDS011;15662;49.128;8.520;2023-04-06T11:31:59;5.30;;;4.80;;
28427;SDS011;15662;49.128;8.520;2023-04-06T11:34:35;5.30;;;4.60;;
28427;SDS011;15662;49.128;8.520;2023-04-06T11:37:10;6.07;;;4.80;;
28427;SDS011;15662;49.128;8.520;2023-04-06T11:39:48;5.18;;;4.68;;
28427;SDS011;15662;49.128;8.520;2023-04-06T11:44:57;7.85;;;5.97;;
28427;SDS011;15662;49.128;8.520;2023-04-06T11:50:06;8.45;;;6.07;;
28427;SDS011;15662;49.128;8.520;2023-04-06T11:52:41;5.88;;;5.10;;
28427;SDS011;15662;49.128;8.520;2023-04-06T11:57:44;4.55;;;4.10;;
28427;SDS011;15662;49.128;8.520;2023-04-06T12:00:15;6.22;;;4.55;;
28427;SDS011;15662;49.128;8.520;2023-04-06T12:02:47;5.65;;;4.85;;
28427;SDS011;15662;49.128;8.520;2023-04-06T12:05:27;5.78;;;4.68;;
28427;SDS011;15662;49.128;8.520;2023-04-06T12:07:55;5.47;;;4.82;;
28427;SDS011;15662;49.128;8.520;2023-04-06T12:10:29;5.43;;;4.63;;
28427;SDS011;15662;49.128;8.520;2023-04-06T12:12:59;7.78;;;5.30;;
28427;SDS011;15662;49.128;8.520;2023-04-06T12:15:29;6.40;;;5.00;;
28427;SDS011;15662;49.128;8.520;2023-04-06T12:17:59;6.93;;;5.03;;
28427;SDS011;15662;49.128;8.520;2023-04-06T12:20:28;5.15;;;4.65;;
28427;SDS011;15662;49.128;8.520;2023-04-06T12:22:56;7.60;;;4.82;;
28427;SDS011;15662;49.128;8.520;2023-04-06T12:25:24;4.72;;;4.32;;
28427;SDS011;15662;49.128;8.520;2023-04-06T12:27:53;5.68;;;4.95;;
28427;SDS011;15662;49.128;8.520;2023-04-06T12:30:21;6.28;;;5.22;;
28427;SDS011;15662;49.128;8.520;2023-04-06T12:32:51;6.00;;;4.85;;
28427;SDS011;15662;49.128;8.520;2023-04-06T12:35:20;5.13;;;4.63;;
28427;SDS011;15662;49.128;8.520;2023-04-06T12:37:50;4.95;;;4.45;;
28427;SDS011;15662;49.128;8.520;2023-04-06T12:40:17;6.00;;;4.47;;
28427;SDS011;15662;49.128;8.520;2023-04-06T12:42:46;5.03;;;4.43;;
28427;SDS011;15662;49.128;8.520;2023-04-06T12:45:14;5.40;;;4.88;;
28427;SDS011;15662;49.128;8.520;2023-04-06T12:47:42;6.32;;;4.35;;
28427;SDS011;15662;49.128;8.520;2023-04-06T12:50:10;4.93;;;4.43;;
28427;SDS011;15662;49.128;8.520;2023-04-06T12:52:38;5.53;;;4.80;;
28427;SDS011;15662;49.128;8.520;2023-04-06T12:55:07;6.43;;;4.72;;
28427;SDS011;15662;49.128;8.520;2023-04-06T12:57:35;5.28;;;4.43;;
28427;SDS011;15662;49.128;8.520;2023-04-06T13:00:06;6.90;;;4.70;;
28427;SDS011;15662;49.128;8.520;2023-04-06T13:02:37;5.82;;;4.32;;
28427;SDS011;15662;49.128;8.520;2023-04-06T13:05:06;5.35;;;4.68;;
28427;SDS011;15662;49.128;8.520;2023-04-06T13:07:34;6.10;;;4.55;;
28427;SDS011;15662;49.128;8.520;2023-04-06T13:10:05;5.18;;;4.65;;
28427;SDS011;15662;49.128;8.520;2023-04-06T13:12:35;6.07;;;4.20;;
28427;SDS011;15662;49.128;8.520;2023-04-06T13:15:03;4.90;;;4.38;;
28427;SDS011;15662;49.128;8.520;2023-04-06T13:17:32;5.95;;;4.50;;
28427;SDS011;15662;49.128;8.520;2023-04-06T13:20:00;5.25;;;4.55;;
28427;SDS011;15662;49.128;8.520;2023-04-06T13:22:37;7.03;;;4.50;;
28427;SDS011;15662;49.128;8.520;2023-04-06T13:25:05;5.78;;;4.35;;
28427;SDS011;15662;49.128;8.520;2023-04-06T13:27:34;5.43;;;4.40;;
28427;SDS011;15662;49.128;8.520;2023-04-06T13:30:03;4.78;;;4.28;;
28427;SDS011;15662;49.128;8.520;2023-04-06T13:32:34;4.43;;;4.03;;
28427;SDS011;15662;49.128;8.520;2023-04-06T13:35:02;4.72;;;4.22;;
28427;SDS011;15662;49.128;8.520;2023-04-06T13:37:30;4.63;;;4.10;;
28427;SDS011;15662;49.128;8.520;2023-04-06T13:39:59;4.25;;;3.78;;
28427;SDS011;15662;49.128;8.520;2023-04-06T13:42:28;3.78;;;3.47;;
28427;SDS011;15662;49.128;8.520;2023-04-06T13:44:56;3.97;;;3.65;;
28427;SDS011;15662;49.128;8.520;2023-04-06T13:47:25;7.63;;;4.05;;
28427;SDS011;15662;49.128;8.520;2023-04-06T13:49:54;4.95;;;4.10;;
28427;SDS011;15662;49.128;8.520;2023-04-06T13:52:23;5.25;;;4.45;;
28427;SDS011;15662;49.128;8.520;2023-04-06T13:54:51;5.00;;;4.47;;
28427;SDS011;15662;49.128;8.520;2023-04-06T13:57:19;4.57;;;4.18;;
28427;SDS011;15662;49.128;8.520;2023-04-06T13:59:47;4.53;;;4.07;;
28427;SDS011;15662;49.128;8.520;2023-04-06T14:02:19;5.18;;;4.68;;
28427;SDS011;15662;49.128;8.520;2023-04-06T14:04:48;5.60;;;4.47;;
28427;SDS011;15662;49.128;8.520;2023-04-06T14:07:16;7.57;;;4.70;;
28427;SDS011;15662;49.128;8.520;2023-04-06T14:09:44;4.45;;;4.05;;
28427;SDS011;15662;49.128;8.520;2023-04-06T14:12:11;6.35;;;4.10;;
28427;SDS011;15662;49.128;8.520;2023-04-06T14:14:40;4.47;;;4.07;;
28427;SDS011;15662;49.128;8.520;2023-04-06T14:17:08;4.43;;;4.03;;
28427;SDS011;15662;49.128;8.520;2023-04-06T14:19:37;4.50;;;4.10;;
28427;SDS011;15662;49.128;8.520;2023-04-06T14:22:06;5.07;;;4.50;;
28427;SDS011;15662;49.128;8.520;2023-04-06T14:27:06;4.35;;;3.95;;
28427;SDS011;15662;49.128;8.520;2023-04-06T14:29:35;4.40;;;3.60;;
28427;SDS011;15662;49.128;8.520;2023-04-06T14:32:05;4.60;;;4.20;;
28427;SDS011;15662;49.128;8.520;2023-04-06T14:34:38;4.38;;;3.90;;
28427;SDS011;15662;49.128;8.520;2023-04-06T14:37:07;4.45;;;4.05;;
28427;SDS011;15662;49.128;8.520;2023-04-06T14:39:35;7.03;;;4.60;;
28427;SDS011;15662;49.128;8.520;2023-04-06T14:42:05;4.32;;;3.83;;
28427;SDS011;15662;49.128;8.520;2023-04-06T14:44:33;3.90;;;3.50;;
28427;SDS011;15662;49.128;8.520;2023-04-06T14:47:03;4.40;;;4.00;;
28427;SDS011;15662;49.128;8.520;2023-04-06T14:49:32;6.97;;;4.10;;
28427;SDS011;15662;49.128;8.520;2023-04-06T14:52:00;5.22;;;4.18;;
28427;SDS011;15662;49.128;8.520;2023-04-06T14:54:28;4.60;;;4.15;;
28427;SDS011;15662;49.128;8.520;2023-04-06T14:56:56;4.53;;;4.10;;
28427;SDS011;15662;49.128;8.520;2023-04-06T14:59:24;5.50;;;4.45;;
28427;SDS011;15662;49.128;8.520;2023-04-06T15:01:52;5.55;;;4.30;;
28427;SDS011;15662;49.128;8.520;2023-04-06T15:04:39;5.40;;;4.65;;
28427;SDS011;15662;49.128;8.520;2023-04-06T15:07:27;5.15;;;4.45;;
28427;SDS011;15662;49.128;8.520;2023-04-06T15:10:15;6.55;;;4.85;;
28427;SDS011;15662;49.128;8.520;2023-04-06T15:13:04;6.22;;;5.20;;
28427;SDS011;15662;49.128;8.520;2023-04-06T15:15:53;4.97;;;4.15;;
28427;SDS011;15662;49.128;8.520;2023-04-06T15:18:41;5.15;;;4.53;;
28427;SDS011;15662;49.128;8.520;2023-04-06T15:21:31;4.75;;;4.22;;
28427;SDS011;15662;49.128;8.520;2023-04-06T15:24:19;4.13;;;3.72;;
28427;SDS011;15662;49.128;8.520;2023-04-06T15:27:08;3.70;;;3.30;;
28427;SDS011;15662;49.128;8.520;2023-04-06T15:29:56;4.63;;;4.00;;
28427;SDS011;15662;49.128;8.520;2023-04-06T15:32:55;5.78;;;4.28;;
28427;SDS011;15662;49.128;8.520;2023-04-06T15:35:50;5.60;;;4.43;;